Time;durP1;ratioP1;P1;durP2;ratioP2;P2;SDS_P1;SDS_P2;PMS_P1;PMS_P2;Temp;Humidity;BMP_temperature;BMP_pressure;BME280_temperature;BME280_humidity;BME280_pressure;Samples;Min_cycle;Max_cycle;Signal;HPM_P1;HPM_P2
2022/07/26 00:02:56;;;;;;;3.90;2.00;;;22.80;53.60;;;21.70;42.54;99594.81;10427800;27;96617;-88
2022/07/26 00:08:09;;;;;;;3.95;1.70;;;22.70;53.50;;;21.63;42.62;99589.63;10435910;27;96675;-88
2022/07/26 00:13:12;;;;;;;3.35;2.08;;;22.70;53.60;;;21.61;42.82;99586.34;10415319;27;96573;-88
2022/07/26 00:18:16;;;;;;;5.20;2.40;;;22.70;53.60;;;21.60;42.79;99589.31;10451577;27;97448;-88
2022/07/26 00:23:19;;;;;;;5.75;2.67;;;22.70;53.70;;;21.60;43.22;99584.72;10418634;27;96552;-88
2022/07/26 00:28:22;;;;;;;3.03;2.33;;;22.80;53.90;;;21.61;43.53;99580.13;10415742;27;98307;-89
2022/07/26 00:33:25;;;;;;;3.45;2.30;;;22.70;54.00;;;21.59;43.62;99579.56;10428336;27;96946;-88
2022/07/26 00:38:28;;;;;;;4.25;2.42;;;22.70;54.10;;;21.55;43.36;99576.56;10413732;27;96607;-88
2022/07/26 00:43:31;;;;;;;2.97;2.00;;;22.70;54.30;;;21.48;43.93;99581.38;10420514;27;96609;-88
2022/07/26 00:48:34;;;;;;;4.50;2.20;;;22.60;54.50;;;21.36;44.19;99572.59;10421739;27;96975;-87
2022/07/26 00:53:37;;;;;;;3.35;2.25;;;22.50;54.80;;;21.24;44.46;99569.19;10449118;27;96846;-87
2022/07/26 00:58:42;;;;;;;3.83;2.40;;;22.40;55.10;;;21.16;44.25;99572.31;10411968;27;96453;-87
2022/07/26 01:03:51;;;;;;;3.88;2.38;;;22.30;55.20;;;21.04;44.52;99567.03;10424518;27;96628;-87
2022/07/26 01:08:55;;;;;;;5.15;2.50;;;22.20;55.30;;;20.97;45.08;99556.41;10420220;27;98067;-87
2022/07/26 01:13:57;;;;;;;3.67;2.33;;;22.20;55.20;;;20.97;44.27;99548.31;10430898;27;96404;-87
2022/07/26 01:19:01;;;;;;;3.78;2.45;;;22.10;54.90;;;20.91;44.22;99552.03;10454413;27;98302;-87
2022/07/26 01:24:05;;;;;;;5.15;2.45;;;22.10;55.00;;;20.88;44.56;99547.13;10436369;27;96809;-87
2022/07/26 01:29:08;;;;;;;4.55;2.08;;;22.00;55.20;;;20.84;44.72;99527.09;10441547;27;96763;-87
2022/07/26 01:34:11;;;;;;;4.47;2.20;;;22.00;55.20;;;20.79;44.51;99540.53;10437643;27;96584;-87
2022/07/26 01:39:14;;;;;;;2.40;1.83;;;22.00;55.10;;;20.73;44.82;99519.94;10441370;27;96625;-88
2022/07/26 01:44:17;;;;;;;3.42;2.08;;;21.90;55.30;;;20.67;45.01;99524.44;10426186;27;97495;-89
2022/07/26 01:49:20;;;;;;;3.70;2.30;;;21.80;55.40;;;20.61;45.03;99522.75;10420242;27;96834;-89
2022/07/26 01:54:23;;;;;;;5.20;2.20;;;21.70;55.60;;;20.57;45.31;99519.75;10455017;27;97536;-90
2022/07/26 01:59:26;;;;;;;3.08;1.95;;;21.70;55.80;;;20.50;45.37;99516.38;10452948;27;96765;-89
2022/07/26 02:09:51;;;;;;;3.35;2.20;;;21.60;56.30;;;20.34;45.90;99514.53;10449430;27;96602;-89
2022/07/26 02:14:54;;;;;;;3.53;2.60;;;21.50;56.40;;;20.29;45.87;99517.16;10450172;27;96923;-89
2022/07/26 02:19:58;;;;;;;4.50;2.55;;;21.40;56.50;;;20.20;46.48;99515.94;10423898;27;96666;-90
2022/07/26 02:25:01;;;;;;;3.20;2.55;;;21.40;56.80;;;20.15;46.45;99513.16;10443186;27;96671;-89
2022/07/26 02:30:08;;;;;;;3.63;2.47;;;21.30;57.00;;;20.12;46.49;99513.66;10434036;27;98472;-89
2022/07/26 02:35:11;;;;;;;3.95;2.50;;;21.30;57.10;;;20.12;46.52;99519.06;10442334;27;96650;-89
2022/07/26 02:40:14;;;;;;;2.85;2.10;;;21.30;57.20;;;20.08;46.81;99521.41;10413542;27;98423;-90
2022/07/26 02:45:21;;;;;;;3.70;2.30;;;21.30;57.30;;;20.06;47.13;99526.25;10420569;27;96635;-89
2022/07/26 02:50:26;;;;;;;3.72;2.20;;;21.20;57.30;;;20.05;46.99;99530.81;10438484;27;98323;-90
2022/07/26 02:55:30;;;;;;;5.97;2.58;;;21.20;57.40;;;20.02;46.81;99520.50;10421467;27;96538;-90
2022/07/26 03:00:32;;;;;;;7.15;6.40;;;21.20;57.30;;;20.03;46.59;99515.94;10427520;27;96566;-88
2022/07/26 03:05:35;;;;;;;5.95;3.50;;;21.20;57.20;;;20.04;46.81;99517.59;10446399;27;96637;-88
2022/07/26 03:10:38;;;;;;;4.68;3.13;;;21.20;57.20;;;20.05;46.75;99520.03;10425355;27;97273;-88
2022/07/26 03:15:41;;;;;;;5.68;2.83;;;21.20;57.30;;;20.01;46.83;99518.06;10454182;27;96540;-88
2022/07/26 03:20:45;;;;;;;3.50;2.70;;;21.20;57.30;;;20.05;47.02;99527.31;10419091;27;96817;-87
2022/07/26 03:25:48;;;;;;;5.50;2.58;;;21.20;57.50;;;20.03;47.23;99529.41;10421732;27;97259;-87
2022/07/26 03:30:51;;;;;;;2.92;2.50;;;21.20;57.50;;;20.08;47.44;99528.69;10423864;27;96768;-88
2022/07/26 03:35:54;;;;;;;6.78;2.35;;;21.20;57.70;;;20.11;47.74;99529.03;10417228;27;98271;-88
2022/07/26 03:40:57;;;;;;;4.57;2.45;;;21.30;57.80;;;20.14;47.65;99516.91;10420609;27;98345;-88
2022/07/26 03:46:00;;;;;;;4.25;2.88;;;21.30;57.80;;;20.21;47.72;99512.16;10422939;27;96946;-83
2022/07/26 03:51:04;;;;;;;5.32;2.40;;;21.40;57.80;;;20.25;47.75;99510.63;10446387;27;97619;-83
2022/07/26 04:01:28;;;;;;;5.30;2.65;;;21.50;58.10;;;20.34;48.00;99502.94;10423941;27;96617;-84
2022/07/26 04:06:31;;;;;;;7.15;2.47;;;21.50;58.20;;;20.39;48.60;99497.56;10421224;27;98713;-84
2022/07/26 04:11:34;;;;;;;4.82;2.33;;;21.50;58.70;;;20.48;48.62;99496.94;10419733;27;96800;-84
2022/07/26 04:16:37;;;;;;;6.53;2.35;;;21.60;58.50;;;20.67;48.20;99491.25;10436723;27;96756;-84
2022/07/26 04:21:45;;;;;;;4.93;2.35;;;21.70;58.20;;;20.86;47.45;99487.13;10444316;27;96647;-84
2022/07/26 04:26:48;;;;;;;3.15;2.33;;;22.00;57.80;;;21.08;47.09;99490.66;10411712;27;96729;-84
2022/07/26 04:31:51;;;;;;;4.30;2.40;;;22.20;57.60;;;21.28;46.84;99494.63;10449892;27;97345;-84
2022/07/26 04:36:54;;;;;;;4.65;2.72;;;22.30;57.30;;;21.41;46.56;99529.41;10420183;27;97668;-84
2022/07/26 04:41:57;;;;;;;6.30;2.95;;;22.50;57.30;;;21.49;47.07;99539.75;10448085;27;98093;-84
2022/07/26 04:46:59;;;;;;;3.95;2.53;;;22.50;57.50;;;21.58;47.24;99527.38;10437280;27;96598;-84
2022/07/26 04:52:03;;;;;;;4.78;2.38;;;22.70;57.70;;;21.71;47.53;99517.22;10422779;27;96814;-84
2022/07/26 04:57:06;;;;;;;4.55;3.10;;;22.80;57.80;;;21.81;47.28;99525.41;10438065;27;96656;-84
2022/07/26 05:02:09;;;;;;;4.20;3.40;;;22.90;57.40;;;22.04;44.51;99522.34;10434626;27;96816;-86
2022/07/26 05:07:12;;;;;;;3.50;2.95;;;23.10;56.00;;;22.37;43.54;99528.56;10428140;27;97788;-82
2022/07/26 05:12:15;;;;;;;3.55;2.42;;;23.40;54.90;;;22.62;43.99;99498.94;10416550;27;96825;-82
2022/07/26 05:17:18;;;;;;;3.95;3.30;;;23.70;55.00;;;22.85;43.73;99510.38;10452527;27;96750;-83
2022/07/26 05:22:22;;;;;;;3.60;2.60;;;23.90;54.90;;;23.11;42.00;99506.72;10445405;27;98558;-85
2022/07/26 05:27:25;;;;;;;4.13;2.83;;;24.20;53.70;;;23.54;40.65;99507.34;10440072;27;98687;-82
2022/07/26 05:32:28;;;;;;;16.48;3.70;;;24.50;52.50;;;24.06;39.89;99516.34;10427714;27;96805;-83
2022/07/26 05:37:31;;;;;;;4.93;3.00;;;25.00;52.00;;;24.49;39.56;99509.50;10461286;27;96448;-83
2022/07/26 05:42:33;;;;;;;7.43;3.45;;;25.40;51.70;;;24.93;39.20;99508.78;10443210;27;98389;-85
2022/07/26 05:47:36;;;;;;;11.65;4.30;;;25.80;51.50;;;25.38;42.61;99498.78;10458339;27;96913;-82
2022/07/26 05:52:39;;;;;;;7.75;4.53;;;26.30;54.50;;;25.82;45.29;99510.41;10427325;27;96436;-83
2022/07/26 05:57:46;;;;;;;8.73;5.68;;;26.70;57.50;;;26.13;45.76;99500.06;10436126;27;96570;-83
2022/07/26 06:02:51;;;;;;;8.23;4.97;;;27.00;58.20;;;26.28;45.20;99490.94;10422781;27;96495;-83
2022/07/26 06:07:54;;;;;;;7.53;4.80;;;27.10;58.10;;;26.42;45.20;99504.72;10442845;27;96468;-83
2022/07/26 06:12:58;;;;;;;8.43;5.25;;;27.20;58.00;;;26.59;45.29;99501.53;10454242;27;96547;-83
2022/07/26 06:18:01;;;;;;;8.27;4.97;;;27.40;57.90;;;26.74;44.61;99497.78;10457307;27;96580;-82
2022/07/26 06:23:04;;;;;;;10.75;5.00;;;27.50;57.60;;;26.85;44.24;99508.28;10448422;27;97088;-80
2022/07/26 06:28:09;;;;;;;9.20;5.18;;;27.70;57.40;;;26.89;44.40;99506.59;10431490;27;97428;-81
2022/07/26 06:33:12;;;;;;;9.40;4.93;;;27.70;57.20;;;26.97;44.66;99499.69;10445758;27;97004;-82
2022/07/26 06:38:15;;;;;;;8.65;5.32;;;27.80;57.30;;;27.15;44.50;99498.09;10451042;27;98385;-83
2022/07/26 06:43:19;;;;;;;7.45;5.07;;;28.00;57.40;;;27.26;44.37;99494.13;10448429;27;96541;-82
2022/07/26 06:48:22;;;;;;;5.70;4.95;;;28.10;57.30;;;27.33;44.24;99499.22;10439614;27;98413;-82
2022/07/26 06:53:25;;;;;;;6.93;4.65;;;28.20;57.10;;;27.42;43.88;99492.00;10437686;27;97868;-82
2022/07/26 06:58:28;;;;;;;5.85;5.13;;;28.30;57.10;;;27.42;44.27;99481.88;10438683;27;97903;-82
2022/07/26 07:03:31;;;;;;;6.47;5.03;;;28.30;57.10;;;27.51;44.51;99473.03;10433003;27;96584;-82
2022/07/26 07:08:34;;;;;;;8.23;5.22;;;28.30;57.40;;;27.64;44.43;99469.53;10429342;27;97405;-82
2022/07/26 07:13:37;;;;;;;9.73;5.05;;;28.40;57.30;;;27.80;43.77;99465.47;10444962;27;96629;-83
2022/07/26 07:18:40;;;;;;;8.27;4.63;;;28.60;57.20;;;27.96;43.81;99466.81;10427325;27;98009;-82
2022/07/26 07:23:43;;;;;;;8.10;4.50;;;28.80;57.10;;;28.15;43.16;99476.88;10415336;27;96805;-83
2022/07/26 07:28:46;;;;;;;6.90;4.80;;;28.90;56.70;;;28.19;42.61;99473.22;10417709;27;96638;-83
2022/07/26 07:33:50;;;;;;;5.45;4.40;;;29.10;56.30;;;28.14;42.74;99480.72;10409346;27;96466;-82
2022/07/26 07:38:55;;;;;;;6.35;4.47;;;29.00;56.40;;;28.20;43.51;99495.91;10425602;27;96531;-82
2022/07/26 07:43:59;;;;;;;9.20;4.55;;;29.00;56.80;;;28.16;43.42;99503.88;10445430;27;96965;-82
2022/07/26 07:49:02;;;;;;;4.85;4.20;;;29.00;56.80;;;28.14;43.48;99494.38;10431584;27;96649;-82
2022/07/26 07:54:05;;;;;;;6.60;4.47;;;28.90;57.10;;;28.16;43.52;99492.13;10417273;27;96897;-83
2022/07/26 07:59:08;;;;;;;8.50;4.70;;;29.00;57.20;;;28.09;44.13;99495.25;10423732;27;96807;-83
2022/07/26 08:04:12;;;;;;;7.47;5.30;;;28.90;57.30;;;27.82;44.85;99509.66;10441646;27;96507;-82
2022/07/26 08:09:15;;;;;;;5.40;4.50;;;28.70;57.90;;;27.73;45.70;99503.25;10430049;27;97362;-83
2022/07/26 08:14:18;;;;;;;8.60;4.55;;;28.50;58.60;;;27.88;45.66;99516.63;10453041;27;96603;-82
2022/07/26 08:19:21;;;;;;;5.90;4.13;;;28.70;59.20;;;27.99;46.20;99518.09;10462369;27;96847;-82
2022/07/26 08:24:24;;;;;;;5.05;4.50;;;28.80;59.50;;;27.98;46.36;99516.47;10463538;27;97060;-82
2022/07/26 08:29:27;;;;;;;6.55;4.57;;;28.70;59.50;;;27.89;46.76;99509.25;10452791;27;96509;-83
2022/07/26 08:34:30;;;;;;;7.57;5.13;;;28.70;59.80;;;27.92;47.09;99506.75;10459899;27;98189;-82
2022/07/26 08:39:33;;;;;;;6.18;4.20;;;28.70;60.10;;;27.96;47.20;99513.25;10453278;27;96566;-83
2022/07/26 08:44:39;;;;;;;5.82;3.97;;;28.80;60.30;;;27.86;46.36;99507.13;10407618;27;96484;-85
2022/07/26 08:49:43;;;;;;;8.75;4.40;;;28.70;59.70;;;27.74;46.57;99507.59;10405225;28;96455;-84
2022/07/26 08:54:49;;;;;;;6.13;4.38;;;28.70;59.90;;;27.71;47.28;99521.88;10430882;27;96561;-84
2022/07/26 09:00:28;;;;;;;8.00;4.40;;;28.60;60.40;;;27.68;47.37;99511.50;10451036;27;97260;-85
2022/07/26 09:05:36;;;;;;;8.65;4.07;;;28.60;60.20;;;27.78;47.30;99521.47;10406185;27;96413;-84
2022/07/26 09:10:38;;;;;;;7.53;4.80;;;28.70;60.20;;;27.85;47.35;99538.28;10437383;27;97348;-85
2022/07/26 09:15:41;;;;;;;6.82;4.10;;;28.80;60.00;;;27.98;46.90;99546.50;10444488;27;98052;-84
2022/07/26 09:20:46;;;;;;;4.70;3.92;;;28.90;59.70;;;27.99;46.39;99545.41;10431537;27;96580;-84
2022/07/26 09:25:50;;;;;;;5.47;4.13;;;28.90;59.40;;;27.94;46.16;99547.41;10457775;27;96632;-84
2022/07/26 09:31:00;;;;;;;6.25;4.25;;;28.80;59.30;;;27.83;46.24;99568.63;10446406;27;96796;-83
2022/07/26 09:36:06;;;;;;;5.60;4.50;;;28.70;59.40;;;27.60;46.56;99594.88;10420522;27;96732;-84
2022/07/26 09:41:36;;;;;;;6.22;4.60;;;28.50;59.60;;;27.32;46.79;99623.88;10419942;28;97606;-83
2022/07/26 09:46:57;;;;;;;6.30;4.40;;;28.30;59.70;;;27.07;47.38;99641.38;10417637;27;96681;-83
2022/07/26 09:52:00;;;;;;;5.43;3.90;;;28.00;60.40;;;26.83;47.63;99665.06;10427731;27;96563;-88
2022/07/26 09:57:03;;;;;;;9.52;5.03;;;27.70;60.60;;;26.44;51.78;99668.66;10432221;27;96720;-84
2022/07/26 10:02:06;;;;;;;11.15;4.65;;;27.40;64.00;;;25.67;56.94;99698.28;10440902;27;96603;-88
2022/07/26 10:07:09;;;;;;;9.00;5.38;;;26.80;68.90;;;24.70;62.83;99728.38;10433824;27;97282;-90
2022/07/26 10:12:15;;;;;;;10.75;6.15;;;25.80;74.50;;;23.68;67.28;99721.91;10440788;27;96999;-92
2022/07/26 10:17:27;;;;;;;7.75;6.43;;;24.80;79.60;;;22.82;71.39;99681.56;10453474;27;97009;-90
2022/07/26 10:22:51;;;;;;;11.15;7.30;;;23.90;85.00;;;22.25;74.64;99614.53;10451922;27;96585;-90
2022/07/26 10:27:56;;;;;;;7.40;6.63;;;23.30;88.30;;;21.95;77.27;99645.66;10420336;27;96659;-92
2022/07/26 10:33:09;;;;;;;7.85;6.80;;;23.10;91.10;;;21.81;80.08;99647.94;10430082;27;97353;-88
2022/07/26 10:38:26;;;;;;;9.55;6.80;;;22.90;93.30;;;21.69;82.43;99668.91;10426519;27;97797;-87
2022/07/26 10:43:29;;;;;;;9.55;7.30;;;22.80;95.80;;;21.61;84.19;99691.81;10429109;27;96827;-88
2022/07/26 10:49:17;;;;;;;8.93;7.03;;;22.80;97.60;;;21.68;86.23;99710.53;10426175;27;98593;-90
2022/07/26 10:54:20;;;;;;;8.95;7.25;;;22.80;99.90;;;21.71;86.57;99710.03;10410287;27;98253;-88
2022/07/26 10:59:33;;;;;;;8.77;7.88;;;22.80;99.90;;;21.77;86.98;99700.91;10446286;27;97253;-92
2022/07/26 11:05:30;;;;;;;11.15;8.48;;;22.70;99.90;;;21.83;87.94;99701.75;10435354;27;97429;-89
2022/07/26 11:10:42;;;;;;;8.68;7.60;;;22.80;99.90;;;21.88;88.69;99693.72;10449831;27;97763;-89
2022/07/26 11:16:01;;;;;;;8.70;7.82;;;22.80;99.90;;;21.90;88.32;99702.41;10424084;27;96683;-88
2022/07/26 11:21:16;;;;;;;;;;;22.80;99.90;;;21.87;87.44;99692.09;10435887;27;96940;-92
2022/07/26 11:26:24;;;;;;;8.70;7.70;;;22.80;99.90;;;21.83;87.24;99702.59;10448471;27;96603;-95
2022/07/26 11:31:46;;;;;;;8.68;7.55;;;22.80;99.90;;;21.81;87.06;99696.63;10418613;27;97290;-90
2022/07/26 11:36:57;;;;;;;11.68;8.07;;;22.80;99.90;;;21.83;86.97;99690.94;10430216;27;96778;-94
2022/07/26 11:42:07;;;;;;;8.98;7.22;;;22.80;99.90;;;21.92;86.74;99697.53;10434609;27;96544;-95
2022/07/26 11:47:20;;;;;;;7.72;6.47;;;22.90;99.90;;;21.96;85.87;99687.88;10442482;27;98113;-94
2022/07/26 11:52:30;;;;;;;7.43;6.68;;;22.90;99.90;;;22.04;86.27;99690.09;10432751;27;96784;-95
2022/07/26 11:57:33;;;;;;;7.20;6.50;;;23.00;99.90;;;22.15;86.86;99691.88;10419754;27;96620;-95
2022/07/26 12:02:36;;;;;;;8.10;6.93;;;23.20;99.90;;;22.25;86.64;99706.56;10415842;27;97426;-94
2022/07/26 12:07:51;;;;;;;7.80;6.97;;;23.30;99.90;;;22.28;86.44;99692.53;10417686;27;96613;-92
2022/07/26 12:13:15;;;;;;;9.05;6.47;;;23.30;99.90;;;22.31;86.31;99673.03;10431825;27;96802;-93
2022/07/26 12:18:31;;;;;;;5.85;5.25;;;23.30;99.90;;;22.39;85.62;99673.41;10435296;27;98160;-93
2022/07/26 12:23:48;;;;;;;5.25;4.75;;;23.40;99.90;;;22.51;85.08;99656.16;10435607;27;97026;-94
2022/07/26 12:28:52;;;;;;;5.60;4.47;;;23.50;99.90;;;22.63;84.35;99652.19;10429888;27;98317;-93
2022/07/26 12:33:55;;;;;;;5.47;4.97;;;23.70;99.90;;;22.73;82.92;99667.72;10429106;27;98333;-92
2022/07/26 12:38:59;;;;;;;5.00;4.50;;;23.80;99.90;;;22.77;82.89;99663.38;10434198;27;96700;-93
2022/07/26 12:44:05;;;;;;;5.20;4.70;;;23.90;99.90;;;22.84;81.42;99676.69;10425653;27;96531;-87
2022/07/26 12:49:07;;;;;;;5.43;4.93;;;23.90;99.90;;;22.82;79.57;99687.00;10449774;27;96573;-89
2022/07/26 12:54:10;;;;;;;5.72;4.90;;;23.90;99.90;;;22.92;80.60;99684.38;10432346;27;96611;-89
2022/07/26 12:59:14;;;;;;;5.68;4.47;;;23.90;99.90;;;23.22;81.02;99681.03;10442357;27;97190;-89
2022/07/26 13:04:19;;;;;;;5.20;4.70;;;24.20;99.90;;;23.56;79.65;99669.78;10446807;27;97492;-86
2022/07/26 13:09:22;;;;;;;5.50;4.93;;;24.50;99.90;;;23.77;78.58;99677.75;10458534;27;96537;-87
2022/07/26 13:14:25;;;;;;;5.78;5.18;;;24.80;99.90;;;23.87;76.79;99659.84;10447832;27;96560;-88
2022/07/26 13:19:28;;;;;;;5.85;5.25;;;24.90;99.90;;;23.90;76.02;99660.13;10458498;27;96499;-89
2022/07/26 13:24:33;;;;;;;6.82;6.13;;;25.00;99.90;;;23.94;73.83;99653.09;10428898;27;96737;-87
2022/07/26 13:29:38;;;;;;;6.63;5.68;;;25.00;99.90;;;24.01;73.77;99656.38;10426445;27;96606;-87
2022/07/26 13:34:42;;;;;;;6.70;6.10;;;25.10;99.90;;;24.04;71.25;99672.09;10448488;27;96840;-88
2022/07/26 13:39:45;;;;;;;6.93;6.25;;;25.10;99.90;;;24.01;71.51;99682.69;10438891;27;96529;-88
2022/07/26 13:44:48;;;;;;;7.18;6.50;;;25.10;99.90;;;24.01;71.89;99666.41;10458666;27;97480;-88
2022/07/26 13:49:50;;;;;;;7.32;6.30;;;25.10;99.90;;;24.08;72.12;99675.09;10444240;27;98294;-88
2022/07/26 13:54:54;;;;;;;6.93;6.22;;;25.10;99.90;;;24.19;72.37;99678.66;10449804;27;96729;-89
2022/07/26 13:59:57;;;;;;;7.03;6.32;;;25.20;99.90;;;24.28;71.48;99675.09;10419668;27;96771;-89
2022/07/26 14:04:59;;;;;;;8.07;6.90;;;25.40;99.80;;;24.39;70.60;99680.56;10428685;27;96777;-88
2022/07/26 14:10:03;;;;;;;8.43;6.88;;;25.40;99.60;;;24.59;69.86;99677.88;10440031;27;96494;-88
2022/07/26 14:15:09;;;;;;;7.55;6.82;;;25.60;99.20;;;24.94;68.76;99665.31;10438175;27;96686;-88
2022/07/26 14:20:21;;;;;;;7.22;6.53;;;25.90;98.70;;;25.17;67.58;99678.31;10445337;27;96558;-87
2022/07/26 14:25:26;;;;;;;7.63;6.85;;;26.20;97.80;;;25.42;66.26;99668.44;10453414;27;97715;-87
2022/07/26 14:30:29;;;;;;;8.80;8.00;;;26.50;97.00;;;25.42;63.60;99668.44;10443045;27;97544;-89
2022/07/26 14:35:32;;;;;;;8.95;8.05;;;26.50;95.20;;;25.37;64.25;99680.19;10449085;27;96600;-94
2022/07/26 14:40:35;;;;;;;9.45;8.55;;;26.40;95.50;;;25.27;64.59;99674.78;10415797;27;97213;-95
2022/07/26 14:45:38;;;;;;;9.00;8.10;;;26.30;95.60;;;25.22;65.35;99666.63;10421979;27;97214;-93
2022/07/26 14:50:42;;;;;;;10.05;9.05;;;26.30;95.80;;;25.20;66.36;99664.19;10433940;27;96728;-94
2022/07/26 14:56:05;;;;;;;9.20;8.40;;;26.30;96.40;;;25.16;67.82;99665.00;10438990;27;98494;-92
2022/07/26 15:01:07;;;;;;;9.70;8.70;;;26.20;97.20;;;25.14;68.05;99662.56;10429929;27;96614;-93
2022/07/26 15:06:10;;;;;;;9.95;8.95;;;26.20;97.60;;;25.09;68.11;99663.41;10444868;27;96604;-93
2022/07/26 15:11:14;;;;;;;9.45;8.55;;;26.20;97.70;;;25.10;68.52;99653.34;10438162;27;96562;-93
2022/07/26 15:16:17;;;;;;;8.52;7.65;;;26.10;97.90;;;25.12;68.90;99648.44;10435309;27;96664;-93
2022/07/26 15:21:20;;;;;;;8.90;8.02;;;26.10;98.10;;;25.20;68.04;99633.47;10435334;27;96729;-91
2022/07/26 15:26:23;;;;;;;10.23;8.75;;;26.20;97.70;;;25.21;67.20;99635.09;10421003;27;97064;-92
2022/07/26 15:31:27;;;;;;;9.70;8.73;;;26.30;97.20;;;25.18;65.54;99641.06;10442834;27;98499;-93
2022/07/26 15:36:39;;;;;;;9.15;8.32;;;26.30;96.20;;;25.16;65.38;99644.06;10411622;27;97430;-94
2022/07/26 15:41:42;;;;;;;9.57;8.55;;;26.20;96.10;;;25.17;65.06;99621.22;10453324;27;98077;-93
2022/07/26 15:46:47;;;;;;;10.02;9.02;;;26.20;96.00;;;25.22;64.99;99612.25;10420137;27;97144;-92
2022/07/26 15:51:50;;;;;;;10.38;9.25;;;26.20;95.60;;;25.16;64.39;99603.28;10413894;27;96703;-94
2022/07/26 15:56:53;;;;;;;10.48;9.48;;;26.20;95.40;;;25.09;64.44;99605.50;10419089;27;97302;-91
2022/07/26 16:01:56;;;;;;;10.13;9.13;;;26.10;95.30;;;25.04;64.17;99595.44;10438818;27;98111;-93
2022/07/26 16:07:00;;;;;;;9.98;8.98;;;26.10;95.30;;;25.05;64.29;99598.97;10420124;27;97800;-93
2022/07/26 16:12:04;;;;;;;10.30;9.30;;;26.10;95.20;;;25.03;63.67;99614.72;10448269;27;96754;-94
2022/07/26 16:17:08;;;;;;;11.50;10.27;;;26.10;94.70;;;24.97;63.24;99607.69;10432120;27;98244;-91
2022/07/26 16:22:10;;;;;;;11.88;10.77;;;26.00;94.50;;;24.96;63.12;99606.06;10430995;27;98352;-90
2022/07/26 16:27:13;;;;;;;11.85;10.65;;;26.00;94.20;;;24.95;62.68;99618.00;10443647;27;97230;-89
2022/07/26 16:32:16;;;;;;;12.50;11.30;;;26.00;94.00;;;24.91;62.48;99619.66;10415864;27;96756;-91
2022/07/26 16:37:19;;;;;;;15.50;13.93;;;26.00;93.70;;;24.87;62.70;99624.03;10458890;27;98341;-90
2022/07/26 16:42:22;;;;;;;15.30;13.70;;;25.90;93.50;;;24.79;61.39;99615.34;10441892;27;96710;-94
2022/07/26 16:47:25;;;;;;;13.90;12.60;;;25.80;92.90;;;24.73;59.60;99612.91;10442481;27;97044;-91
2022/07/26 16:52:28;;;;;;;13.68;12.35;;;25.70;91.50;;;24.76;59.46;99613.16;10444948;27;96624;-87
2022/07/26 16:57:31;;;;;;;12.88;11.68;;;25.80;91.50;;;24.76;59.45;99631.38;10456872;27;96604;-89
2022/07/26 17:02:35;;;;;;;12.45;11.35;;;25.80;91.40;;;24.79;59.07;99639.81;10422914;27;97440;-88
2022/07/26 17:07:38;;;;;;;12.50;11.30;;;25.80;91.10;;;24.72;58.44;99642.00;10438735;27;98418;-89
2022/07/26 17:12:41;;;;;;;11.80;10.63;;;25.80;90.50;;;24.62;57.89;99642.00;10447257;27;96640;-90
2022/07/26 17:17:45;;;;;;;11.60;10.43;;;25.70;90.00;;;24.50;58.73;99646.91;10417604;27;96610;-91
2022/07/26 17:22:51;;;;;;;13.05;11.75;;;25.60;90.20;;;24.37;59.46;99647.47;10436668;27;96608;-90
2022/07/26 17:27:53;;;;;;;13.85;12.40;;;25.40;90.60;;;24.25;59.89;99650.41;10450004;27;96600;-91
2022/07/26 17:32:57;;;;;;;13.82;12.43;;;25.30;90.90;;;24.13;60.72;99652.56;10431826;27;98219;-89
2022/07/26 17:38:00;;;;;;;14.25;12.85;;;25.20;91.30;;;24.02;61.16;99654.47;10421989;27;96676;-90
2022/07/26 17:43:05;;;;;;;14.77;13.27;;;25.10;91.60;;;23.97;61.58;99651.75;10431175;27;97984;-90
2022/07/26 17:48:08;;;;;;;14.57;13.18;;;25.10;91.80;;;23.93;61.76;99648.75;10435488;27;97669;-89
2022/07/26 17:53:11;;;;;;;14.15;12.80;;;25.00;91.90;;;23.91;62.12;99631.09;10428589;27;97289;-89
2022/07/26 17:58:14;;;;;;;13.10;11.90;;;25.00;92.00;;;23.84;62.25;99661.22;10425919;27;97731;-89
2022/07/26 18:03:17;;;;;;;15.15;13.55;;;25.00;92.20;;;23.79;62.84;99654.97;10424261;27;96664;-90
2022/07/26 18:08:25;;;;;;;15.32;13.93;;;24.90;92.50;;;23.69;63.07;99650.31;10438408;27;97440;-88
2022/07/26 18:13:29;;;;;;;14.13;12.60;;;24.80;92.60;;;23.61;63.66;99650.81;10429432;27;96694;-89
2022/07/26 18:18:32;;;;;;;15.25;13.85;;;24.80;92.90;;;23.51;63.86;99662.47;10415534;27;97508;-90
2022/07/26 18:23:35;;;;;;;15.48;13.98;;;24.60;93.00;;;23.41;64.43;99665.94;10427002;27;96866;-89
2022/07/26 18:28:38;;;;;;;14.75;13.20;;;24.60;93.40;;;23.32;64.83;99670.22;10428738;27;97208;-88
2022/07/26 18:33:43;;;;;;;14.05;12.65;;;24.40;93.70;;;23.29;65.19;99672.66;10418723;27;96717;-89
2022/07/26 18:38:48;;;;;;;13.18;11.93;;;24.40;93.90;;;23.24;65.61;99678.88;10448268;27;97905;-86
2022/07/26 18:43:50;;;;;;;13.70;12.40;;;24.40;94.00;;;23.20;65.97;99689.41;10441424;27;97473;-91
2022/07/26 18:48:53;;;;;;;13.35;12.10;;;24.30;94.20;;;23.12;66.21;99692.63;10423405;27;96902;-90
2022/07/26 18:53:59;;;;;;;13.00;11.80;;;24.30;94.40;;;23.07;66.25;99697.19;10446687;27;97655;-91
2022/07/26 18:59:02;;;;;;;12.65;11.45;;;24.30;94.60;;;22.99;66.50;99708.53;10428588;27;96628;-90
2022/07/26 19:04:05;;;;;;;12.82;11.52;;;24.20;94.70;;;22.95;66.77;99702.81;10429921;27;96640;-87
2022/07/26 19:09:09;;;;;;;12.95;11.23;;;24.10;94.90;;;22.91;67.04;99712.53;10407489;27;97063;-87
2022/07/26 19:14:14;;;;;;;13.50;11.50;;;24.20;94.90;;;22.80;67.44;99705.41;10431169;27;96671;-87
2022/07/26 19:19:17;;;;;;;12.00;10.88;;;24.00;95.00;;;22.69;67.61;99710.75;10430341;27;98249;-87
2022/07/26 19:24:20;;;;;;;11.70;10.60;;;24.00;95.20;;;22.58;68.06;99719.84;10418876;27;96950;-87
2022/07/26 19:29:23;;;;;;;9.95;8.98;;;23.90;95.40;;;22.45;68.02;99720.28;10428361;27;96517;-89
2022/07/26 19:34:26;;;;;;;9.90;9.02;;;23.80;95.50;;;22.33;68.51;99722.34;10431252;27;96658;-87
2022/07/26 19:39:30;;;;;;;9.55;8.55;;;23.60;95.60;;;22.21;68.39;99718.97;10451867;27;96874;-87
2022/07/26 19:44:33;;;;;;;9.07;7.88;;;23.50;95.80;;;22.16;68.59;99717.84;10446902;27;96620;-87
2022/07/26 19:49:36;;;;;;;9.10;8.20;;;23.40;95.80;;;22.05;68.61;99726.09;10431879;27;96703;-87
2022/07/26 19:54:39;;;;;;;8.15;7.43;;;23.30;96.00;;;21.96;69.25;99714.91;10414599;27;97575;-87
2022/07/26 19:59:43;;;;;;;9.80;7.88;;;23.20;96.20;;;21.85;69.60;99722.09;10409372;27;98432;-87
2022/07/26 20:04:45;;;;;;;7.68;6.65;;;23.10;96.40;;;21.77;69.52;99736.06;10428775;27;97388;-87
2022/07/26 20:09:50;;;;;;;7.05;6.28;;;23.00;96.50;;;21.71;69.32;99736.25;10442792;27;97266;-88
2022/07/26 20:14:52;;;;;;;6.35;5.78;;;22.90;96.50;;;21.66;69.44;99738.91;10419017;27;96918;-88
2022/07/26 20:19:55;;;;;;;6.80;6.20;;;22.90;96.50;;;21.61;69.51;99742.34;10436416;27;96661;-88
2022/07/26 20:24:58;;;;;;;6.93;6.10;;;22.90;96.60;;;21.52;69.75;99752.78;10418326;27;97530;-87
2022/07/26 20:30:02;;;;;;;6.10;5.50;;;22.70;96.70;;;21.43;70.12;99757.00;10430885;27;96792;-88
2022/07/26 20:35:05;;;;;;;6.97;5.47;;;22.70;96.80;;;21.36;69.71;99762.59;10434380;27;98343;-89
2022/07/26 20:40:11;;;;;;;6.28;5.68;;;22.60;96.80;;;21.29;70.14;99763.81;10416417;27;98150;-89
2022/07/26 20:45:17;;;;;;;6.65;5.45;;;22.60;96.80;;;21.25;70.15;99770.75;10422497;27;96560;-90
2022/07/26 20:50:21;;;;;;;5.40;4.90;;;22.50;96.70;;;21.17;69.71;99768.47;10423480;27;96719;-88
2022/07/26 20:55:26;;;;;;;5.35;4.50;;;22.50;96.70;;;21.07;69.78;99761.84;10426366;27;97280;-89
2022/07/26 21:00:29;;;;;;;4.80;4.30;;;22.40;96.60;;;21.04;69.53;99758.81;10414661;27;97748;-86
2022/07/26 21:05:32;;;;;;;5.60;4.22;;;22.30;96.50;;;20.98;69.33;99760.63;10405817;27;97367;-86
2022/07/26 21:10:35;;;;;;;4.60;4.20;;;22.20;96.50;;;20.91;69.39;99768.06;10415438;27;96736;-88
2022/07/26 21:15:38;;;;;;;5.07;4.05;;;22.20;96.60;;;20.85;69.77;99760.97;10444461;27;96581;-86